createdAt,value
2019-01-14T00:00:38.481Z,7.21
2019-01-14T00:06:10.275Z,6.91
2019-01-14T00:08:41.773Z,6.91
2019-01-14T00:11:14.761Z,6.84
2019-01-14T00:13:44.178Z,6.67
2019-01-14T00:16:18.508Z,6.62
2019-01-14T00:18:51.007Z,6.49
2019-01-14T00:21:25.691Z,6.41
2019-01-14T00:23:56.854Z,6.32
2019-01-14T00:26:29.314Z,6.25
2019-01-14T00:29:07.783Z,6.21
2019-01-14T00:31:40.446Z,6.17
2019-01-14T00:34:11.715Z,6.06
2019-01-14T00:36:43.511Z,6.06
2019-01-14T00:39:19.353Z,6.03
2019-01-14T00:42:07.719Z,6.00
2019-01-14T00:44:40.086Z,5.88
2019-01-14T00:47:13.604Z,5.75
2019-01-14T00:49:56.706Z,5.71
2019-01-14T00:52:31.149Z,5.63
2019-01-14T00:55:05.907Z,5.52
2019-01-14T00:57:39.591Z,5.56
2019-01-14T01:00:13.811Z,5.59
2019-01-14T01:02:49.427Z,5.53
2019-01-14T01:05:22.583Z,5.55
2019-01-14T01:07:57.379Z,5.55
2019-01-14T01:10:38.740Z,5.46
2019-01-14T01:13:18.199Z,5.39
2019-01-14T01:15:47.811Z,5.35
2019-01-14T01:18:18.740Z,5.33
2019-01-14T01:20:58.044Z,5.28
2019-01-14T01:23:32.890Z,5.30
2019-01-14T01:26:17.161Z,5.26
2019-01-14T01:28:55.781Z,5.27
2019-01-14T01:31:30.755Z,5.27
2019-01-14T01:34:09.679Z,5.30
2019-01-14T01:39:46.649Z,5.41
2019-01-14T01:42:28.830Z,5.53
2019-01-14T01:45:17.741Z,5.53
2019-01-14T01:47:59.530Z,5.63
2019-01-14T01:50:33.594Z,5.55
2019-01-14T01:53:04.123Z,5.55
2019-01-14T01:55:38.823Z,5.47
2019-01-14T01:58:11.280Z,5.35
2019-01-14T02:00:43.945Z,5.35
2019-01-14T02:03:19.831Z,5.33
2019-01-14T02:05:55.990Z,5.40
2019-01-14T02:08:31.888Z,5.38
2019-01-14T02:11:02.482Z,5.38
2019-01-14T02:13:33.660Z,5.34
2019-01-14T02:16:11.452Z,5.30
2019-01-14T02:18:46.762Z,5.30
2019-01-14T02:21:18.190Z,5.30
2019-01-14T02:23:52.416Z,5.19
2019-01-14T02:26:24.964Z,5.20
2019-01-14T02:29:02.950Z,5.07
2019-01-14T02:31:39.840Z,5.07
2019-01-14T02:34:11.410Z,5.11
2019-01-14T02:36:49.442Z,5.15
2019-01-14T02:39:27.955Z,5.16
2019-01-14T02:42:01.166Z,5.14
2019-01-14T02:44:35.865Z,5.14
2019-01-14T02:47:13.808Z,5.14
2019-01-14T02:49:53.618Z,5.21
2019-01-14T02:52:26.300Z,5.23
2019-01-14T02:54:59.998Z,5.27
2019-01-14T02:57:37.409Z,5.35
2019-01-14T03:00:14.807Z,5.36
2019-01-14T03:03:00.187Z,5.39
2019-01-14T03:05:36.997Z,5.28
2019-01-14T03:08:20.268Z,5.30
2019-01-14T03:10:56.848Z,5.39
2019-01-14T03:16:26.466Z,5.52
2019-01-14T03:19:07.146Z,5.72
2019-01-14T03:21:54.224Z,5.85
2019-01-14T03:24:28.209Z,5.87
2019-01-14T03:27:05.031Z,5.86
2019-01-14T03:29:41.831Z,5.93
2019-01-14T03:32:16.126Z,6.05
2019-01-14T03:34:50.453Z,6.12
2019-01-14T03:37:21.703Z,6.15
2019-01-14T03:39:55.716Z,6.15
2019-01-14T03:42:32.071Z,6.19
2019-01-14T03:45:01.702Z,6.17
2019-01-14T03:47:33.006Z,6.20
2019-01-14T03:50:06.523Z,6.17
2019-01-14T03:52:39.296Z,6.15
2019-01-14T03:55:10.845Z,6.04
2019-01-14T03:57:40.470Z,5.97
2019-01-14T04:00:18.364Z,5.93
2019-01-14T04:02:49.428Z,5.92
2019-01-14T04:05:24.223Z,6.05
2019-01-14T04:07:56.807Z,5.95
2019-01-14T04:10:42.106Z,5.87
2019-01-14T04:13:12.013Z,6.05
2019-01-14T04:15:41.644Z,6.07
2019-01-14T04:18:14.326Z,6.07
2019-01-14T04:20:46.841Z,5.98
2019-01-14T04:23:20.156Z,6.12
2019-01-14T04:26:02.192Z,6.00
2019-01-14T04:28:35.996Z,6.02
2019-01-14T04:31:07.563Z,5.90
2019-01-14T04:33:45.660Z,5.89
2019-01-14T04:36:24.056Z,5.79
2019-01-14T04:39:01.495Z,5.75
2019-01-14T04:41:38.756Z,5.75
2019-01-14T04:44:11.715Z,5.62
2019-01-14T04:46:49.742Z,5.59
2019-01-14T04:49:27.836Z,5.57
2019-01-14T04:52:11.554Z,5.40
2019-01-14T04:54:45.660Z,5.37
2019-01-14T04:57:22.334Z,5.39
2019-01-14T05:00:07.304Z,5.29
2019-01-14T05:02:38.472Z,5.15
2019-01-14T05:05:17.789Z,5.10
2019-01-14T05:07:57.645Z,5.10
2019-01-14T05:10:29.391Z,5.04
2019-01-14T05:13:01.169Z,4.92
2019-01-14T05:15:41.726Z,4.82
2019-01-14T05:18:15.945Z,4.80
2019-01-14T05:20:55.140Z,4.77
2019-01-14T05:23:43.430Z,4.66
2019-01-14T05:26:24.802Z,4.66
2019-01-14T05:29:19.091Z,4.65
2019-01-14T05:31:52.801Z,4.62
2019-01-14T05:34:27.279Z,4.83
2019-01-14T05:37:00.608Z,4.85
2019-01-14T05:39:35.343Z,4.91
2019-01-14T05:42:13.305Z,4.91
2019-01-14T05:44:55.225Z,4.96
2019-01-14T05:47:41.132Z,5.01
2019-01-14T05:50:18.022Z,5.06
2019-01-14T05:52:52.289Z,5.11
2019-01-14T05:55:29.818Z,5.13
2019-01-14T05:58:05.538Z,5.17
2019-01-14T06:00:39.772Z,5.18
2019-01-14T06:03:13.081Z,5.21
2019-01-14T06:06:06.234Z,5.31
2019-01-14T06:08:40.007Z,5.36
2019-01-14T06:11:10.018Z,5.42
2019-01-14T06:13:51.433Z,5.52
2019-01-14T06:16:24.553Z,5.47
2019-01-14T06:19:00.553Z,5.55
2019-01-14T06:21:35.475Z,5.61
2019-01-14T06:24:05.243Z,5.63
2019-01-14T06:26:39.503Z,5.65
2019-01-14T06:29:11.633Z,5.67
2019-01-14T06:31:45.402Z,5.67
2019-01-14T06:34:18.396Z,5.62
2019-01-14T06:39:52.046Z,5.57
2019-01-14T06:42:25.957Z,5.54
2019-01-14T06:45:05.770Z,5.50
2019-01-14T06:50:47.489Z,5.46
2019-01-14T06:53:22.842Z,5.54
2019-01-14T06:56:03.292Z,5.61
2019-01-14T07:04:49.327Z,5.77
2019-01-14T07:07:48.026Z,5.86
2019-01-14T07:10:22.745Z,5.79
2019-01-14T07:12:56.653Z,5.77
2019-01-14T07:15:32.551Z,5.85
2019-01-14T07:18:06.865Z,5.91
2019-01-14T07:20:48.080Z,6.02
2019-01-14T07:23:26.406Z,5.90
2019-01-14T07:26:14.537Z,5.98
2019-01-14T07:31:56.722Z,6.12
2019-01-14T07:34:35.402Z,6.12
2019-01-14T07:37:14.629Z,6.14
2019-01-14T07:39:53.947Z,6.14
2019-01-14T07:42:50.605Z,6.19
2019-01-14T07:45:30.526Z,6.17
2019-01-14T07:48:11.509Z,6.19
2019-01-14T07:50:47.822Z,6.22
2019-01-14T07:53:32.750Z,6.32
2019-01-14T07:56:17.842Z,6.26
2019-01-14T07:58:59.139Z,6.36
2019-01-14T08:04:42.485Z,6.48
2019-01-14T08:07:25.788Z,6.50
2019-01-14T08:10:05.711Z,6.51
2019-01-14T08:12:41.056Z,6.44
2019-01-14T08:15:20.021Z,6.33
2019-01-14T08:17:58.807Z,6.47
2019-01-14T08:20:36.733Z,6.50
2019-01-14T08:23:13.597Z,6.63
2019-01-14T08:25:49.991Z,6.64
2019-01-14T08:31:37.306Z,6.67
2019-01-14T08:34:18.596Z,6.67
2019-01-14T08:37:08.418Z,6.84
2019-01-14T08:39:41.277Z,6.73
2019-01-14T08:42:23.798Z,6.78
2019-01-14T08:44:56.013Z,6.94
2019-01-14T08:47:36.377Z,7.02
2019-01-14T08:50:19.766Z,7.08
2019-01-14T08:52:55.952Z,7.20
2019-01-14T08:55:34.191Z,7.23
2019-01-14T09:01:18.530Z,7.36
2019-01-14T09:03:58.955Z,7.41
2019-01-14T09:09:28.176Z,7.16
2019-01-14T09:12:08.729Z,7.06
2019-01-14T09:17:40.486Z,7.06
2019-01-14T09:20:32.808Z,7.13
2019-01-14T09:23:02.552Z,7.11
2019-01-14T09:25:42.397Z,7.18
2019-01-14T09:28:17.902Z,7.20
2019-01-14T09:31:13.109Z,7.11
2019-01-14T09:33:45.405Z,7.29
2019-01-14T09:42:17.530Z,7.75
2019-01-14T09:44:54.357Z,7.73
2019-01-14T09:50:30.557Z,8.70
2019-01-14T09:53:24.846Z,8.99
2019-01-14T09:56:00.791Z,8.99
2019-01-14T09:58:40.062Z,8.58
2019-01-14T10:01:22.024Z,8.44
2019-01-14T10:04:05.970Z,7.94
2019-01-14T10:06:48.501Z,7.79
2019-01-14T10:09:24.565Z,7.83
2019-01-14T10:11:55.225Z,7.54
2019-01-14T10:14:26.349Z,7.63
2019-01-14T10:17:00.733Z,7.69
2019-01-14T10:19:34.357Z,7.69
2019-01-14T10:22:12.197Z,7.73
2019-01-14T10:24:52.081Z,7.65
2019-01-14T10:27:37.726Z,7.58
2019-01-14T10:30:12.721Z,7.62
2019-01-14T10:33:03.507Z,7.77
2019-01-14T10:35:59.799Z,7.56
2019-01-14T10:38:50.291Z,7.46
2019-01-14T10:41:17.683Z,7.64
2019-01-14T10:43:52.283Z,7.75
2019-01-14T10:46:24.980Z,7.78
2019-01-14T10:51:43.220Z,7.85
2019-01-14T10:54:17.878Z,8.06
2019-01-14T10:56:51.069Z,8.23
2019-01-14T10:59:24.646Z,8.47
2019-01-14T11:02:02.800Z,8.59
2019-01-14T11:04:49.652Z,8.51
2019-01-14T11:07:21.936Z,8.41
2019-01-14T11:12:48.326Z,8.32
2019-01-14T11:15:22.896Z,8.35
2019-01-14T11:20:57.648Z,8.43
2019-01-14T11:23:34.639Z,8.35
2019-01-14T11:29:13.699Z,8.03
2019-01-14T11:31:52.862Z,7.89
2019-01-14T11:34:33.659Z,7.99
2019-01-14T11:40:00.457Z,7.85
2019-01-14T11:42:42.110Z,7.81
2019-01-14T11:48:25.169Z,8.05
2019-01-14T11:53:50.355Z,8.18
2019-01-14T11:56:28.847Z,8.36
2019-01-14T11:59:15.730Z,7.92
2019-01-14T12:01:54.567Z,7.72
2019-01-14T12:04:31.562Z,7.58
2019-01-14T12:07:11.226Z,7.58
2019-01-14T12:09:46.325Z,7.86
2019-01-14T12:12:36.879Z,7.99
2019-01-14T12:15:28.656Z,7.87
2019-01-14T12:18:06.660Z,6.44
2019-01-14T12:23:37.815Z,4.58
2019-01-14T12:26:15.839Z,4.33
2019-01-14T12:28:58.276Z,4.33
2019-01-14T12:37:30.120Z,4.98
2019-01-14T12:40:13.442Z,5.24
2019-01-14T12:45:59.590Z,5.40
2019-01-14T12:48:51.160Z,5.46
2019-01-14T12:51:33.727Z,5.54
2019-01-14T12:54:10.143Z,5.46
2019-01-14T12:56:44.218Z,5.67
2019-01-14T12:59:18.153Z,5.70
2019-01-14T13:01:53.426Z,5.84
2019-01-14T13:04:30.109Z,5.94
2019-01-14T13:07:08.434Z,5.87
2019-01-14T13:09:46.808Z,5.66
2019-01-14T13:12:19.601Z,5.56
2019-01-14T13:14:53.745Z,5.48
2019-01-14T13:17:32.932Z,5.51
2019-01-14T13:23:10.360Z,5.57
2019-01-14T13:25:44.391Z,5.75
2019-01-14T13:28:17.010Z,5.73
2019-01-14T13:30:50.206Z,5.84
2019-01-14T13:33:21.454Z,5.78
2019-01-14T13:35:52.522Z,5.98
2019-01-14T13:38:29.753Z,6.18
2019-01-14T13:41:05.153Z,6.26
2019-01-14T13:43:46.247Z,6.35
2019-01-14T13:46:26.091Z,6.17
2019-01-14T13:48:56.280Z,5.97
2019-01-14T13:51:31.786Z,6.14
2019-01-14T13:54:12.624Z,6.21
2019-01-14T13:56:48.810Z,6.22
2019-01-14T13:59:23.263Z,6.09
2019-01-14T14:02:17.703Z,5.99
2019-01-14T14:05:01.991Z,5.82
2019-01-14T14:07:56.390Z,5.67
2019-01-14T14:10:49.968Z,5.75
2019-01-14T14:13:31.197Z,5.52
2019-01-14T14:16:06.848Z,5.47
2019-01-14T14:18:46.170Z,5.33
2019-01-14T14:21:38.032Z,5.46
2019-01-14T14:30:46.281Z,6.09
2019-01-14T14:36:51.737Z,5.55
2019-01-14T14:39:32.699Z,5.45
2019-01-14T14:45:30.603Z,5.52
2019-01-14T14:48:34.688Z,5.55
2019-01-14T14:51:31.670Z,5.50
2019-01-14T14:54:04.672Z,5.50
2019-01-14T14:56:46.886Z,5.51
2019-01-14T14:59:25.400Z,5.50
2019-01-14T15:02:02.467Z,5.32
2019-01-14T15:04:35.012Z,5.36
2019-01-14T15:07:28.803Z,5.23
2019-01-14T15:10:02.902Z,5.14
2019-01-14T15:12:34.240Z,5.17
2019-01-14T15:15:18.959Z,5.18
2019-01-14T15:17:54.591Z,5.21
2019-01-14T15:20:25.390Z,5.41
2019-01-14T15:22:56.206Z,5.53
2019-01-14T15:25:27.569Z,5.39
2019-01-14T15:28:04.785Z,5.52
2019-01-14T15:30:36.854Z,5.47
2019-01-14T15:33:12.508Z,5.49
2019-01-14T15:35:51.021Z,5.58
2019-01-14T15:38:27.160Z,5.53
2019-01-14T15:41:03.454Z,5.58
2019-01-14T15:43:47.675Z,5.56
2019-01-14T15:46:25.893Z,5.39
2019-01-14T15:49:03.064Z,5.51
2019-01-14T15:51:44.073Z,5.37
2019-01-14T15:54:19.279Z,5.28
2019-01-14T15:56:52.988Z,5.26
2019-01-14T15:59:33.281Z,5.30
2019-01-14T16:02:12.198Z,5.18
2019-01-14T16:04:43.185Z,5.26
2019-01-14T16:07:23.904Z,5.18
2019-01-14T16:10:10.395Z,5.03
2019-01-14T16:12:37.332Z,5.00
2019-01-14T16:15:10.274Z,4.92
2019-01-14T16:17:42.987Z,4.94
2019-01-14T16:20:18.323Z,4.89
2019-01-14T16:22:50.337Z,4.92
2019-01-14T16:25:30.502Z,4.94
2019-01-14T16:28:01.536Z,4.95
2019-01-14T16:30:39.714Z,5.05
2019-01-14T16:33:14.153Z,4.98
2019-01-14T16:35:50.382Z,5.07
2019-01-14T16:38:24.298Z,5.15
2019-01-14T16:41:00.770Z,5.18
2019-01-14T16:43:37.816Z,5.26
2019-01-14T16:49:03.235Z,5.45
2019-01-14T16:51:36.103Z,5.58
2019-01-14T16:57:12.675Z,5.70
2019-01-14T16:59:46.694Z,5.78
2019-01-14T17:02:19.584Z,5.53
2019-01-14T17:04:55.950Z,5.67
2019-01-14T17:07:37.999Z,5.74
2019-01-14T17:10:25.185Z,5.71
2019-01-14T17:12:57.556Z,5.80
2019-01-14T17:15:30.684Z,5.77
2019-01-14T17:18:01.616Z,5.77
2019-01-14T17:20:38.593Z,5.67
2019-01-14T17:23:20.475Z,5.62
2019-01-14T17:25:55.822Z,5.53
2019-01-14T17:28:31.099Z,5.54
2019-01-14T17:31:12.791Z,5.60
2019-01-14T17:33:43.988Z,5.43
2019-01-14T17:36:16.532Z,5.48
2019-01-14T17:38:51.163Z,5.53
2019-01-14T17:41:30.361Z,5.55
2019-01-14T17:44:04.364Z,5.57
2019-01-14T17:46:39.877Z,5.52
2019-01-14T17:49:15.784Z,5.59
2019-01-14T17:51:53.835Z,5.61
2019-01-14T17:54:29.494Z,5.65
2019-01-14T17:57:03.672Z,5.66
2019-01-14T17:59:38.953Z,5.69
2019-01-14T18:02:13.467Z,5.66
2019-01-14T18:04:53.744Z,5.56
2019-01-14T18:07:30.403Z,5.61
2019-01-14T18:10:12.249Z,5.50
2019-01-14T18:15:45.629Z,5.29
2019-01-14T18:18:19.792Z,5.37
2019-01-14T18:20:56.292Z,5.29
2019-01-14T18:23:27.466Z,5.23
2019-01-14T18:26:11.523Z,5.23
2019-01-14T18:28:47.642Z,5.14
2019-01-14T18:31:21.170Z,4.98
2019-01-14T18:33:57.728Z,4.79
2019-01-14T18:36:35.130Z,4.59
2019-01-14T18:39:14.358Z,4.36
2019-01-14T18:41:55.736Z,4.38
2019-01-14T18:44:26.370Z,4.28
2019-01-14T18:47:10.793Z,4.23
2019-01-14T18:52:40.115Z,4.21
2019-01-14T18:55:18.378Z,4.30
2019-01-14T19:00:42.304Z,4.40
2019-01-14T19:03:20.261Z,4.46
2019-01-14T19:06:03.476Z,4.50
2019-01-14T19:08:34.587Z,4.55
2019-01-14T19:11:07.301Z,4.63
2019-01-14T19:13:38.704Z,4.70
2019-01-14T19:16:12.968Z,4.74
2019-01-14T19:18:43.453Z,4.82
2019-01-14T19:21:17.152Z,4.77
2019-01-14T19:24:00.096Z,4.74
2019-01-14T19:26:29.997Z,4.80
2019-01-14T19:29:05.848Z,4.84
2019-01-14T19:31:39.119Z,4.86
2019-01-14T19:34:17.976Z,4.83
2019-01-14T19:36:56.230Z,4.84
2019-01-14T19:39:30.411Z,4.94
2019-01-14T19:42:03.809Z,5.05
2019-01-14T19:44:36.995Z,5.06
2019-01-14T19:47:30.033Z,5.02
2019-01-14T19:50:10.372Z,5.04
2019-01-14T19:52:44.322Z,5.17
2019-01-14T19:55:17.825Z,5.22
2019-01-14T19:57:49.882Z,5.29
2019-01-14T20:00:28.229Z,5.24
2019-01-14T20:05:57.146Z,5.25
2019-01-14T20:08:28.744Z,5.12
2019-01-14T20:11:09.327Z,4.95
2019-01-14T20:13:44.896Z,4.63
2019-01-14T20:16:32.774Z,4.41
2019-01-14T20:19:10.390Z,4.20
2019-01-14T20:21:49.254Z,3.96
2019-01-14T20:24:27.266Z,3.65
2019-01-14T20:27:08.842Z,3.50
2019-01-14T20:29:48.649Z,3.30
2019-01-14T20:32:31.101Z,3.20
2019-01-14T20:35:06.381Z,3.04
2019-01-14T20:37:41.548Z,2.77
2019-01-14T20:40:26.116Z,2.66
2019-01-14T20:43:02.642Z,2.45
2019-01-14T20:48:27.022Z,2.52
2019-01-14T20:51:08.527Z,2.50
2019-01-14T20:53:39.990Z,2.54
2019-01-14T20:56:16.861Z,2.56
2019-01-14T20:58:49.845Z,2.59
2019-01-14T21:01:29.312Z,2.59
2019-01-14T21:04:08.093Z,2.56
2019-01-14T21:06:51.543Z,2.43
2019-01-14T21:12:23.841Z,2.15
2019-01-14T21:14:53.668Z,2.13
2019-01-14T21:17:39.022Z,2.12
2019-01-14T21:23:12.092Z,2.31
2019-01-14T21:25:48.691Z,2.28
2019-01-14T21:28:28.030Z,2.28
2019-01-14T21:31:05.669Z,2.24
2019-01-14T21:33:46.282Z,2.20
2019-01-14T21:36:26.657Z,2.15
2019-01-14T21:39:01.166Z,2.13
2019-01-14T21:41:39.877Z,2.08
2019-01-14T21:44:17.985Z,2.20
2019-01-14T21:49:48.035Z,2.19
2019-01-14T21:52:32.431Z,2.19
2019-01-14T21:55:04.850Z,2.16
2019-01-14T21:57:43.592Z,2.21
2019-01-14T22:00:18.673Z,2.22
2019-01-14T22:02:50.774Z,2.41
2019-01-14T22:05:23.137Z,2.53
2019-01-14T22:08:00.814Z,2.63
2019-01-14T22:10:32.907Z,2.66
2019-01-14T22:13:04.945Z,2.68
2019-01-14T22:15:36.147Z,2.64
2019-01-14T22:18:08.707Z,2.68
2019-01-14T22:20:43.618Z,2.71
2019-01-14T22:23:18.078Z,2.76
2019-01-14T22:26:01.574Z,2.85
2019-01-14T22:28:37.033Z,2.86
2019-01-14T22:31:17.478Z,2.96
2019-01-14T22:33:54.775Z,3.01
2019-01-14T22:39:30.973Z,3.11
2019-01-14T22:42:17.889Z,3.20
2019-01-14T22:44:51.671Z,3.16
2019-01-14T22:47:33.480Z,3.21
2019-01-14T22:53:12.952Z,3.33
2019-01-14T22:55:47.983Z,3.39
2019-01-14T22:58:21.261Z,3.38
2019-01-14T23:00:57.612Z,3.48
2019-01-14T23:03:34.298Z,3.47
2019-01-14T23:06:14.664Z,3.50
2019-01-14T23:08:47.419Z,3.53
2019-01-14T23:11:25.254Z,3.47
2019-01-14T23:14:00.768Z,3.42
2019-01-14T23:16:37.653Z,3.28
2019-01-14T23:19:15.326Z,3.48
2019-01-14T23:21:46.234Z,3.46
2019-01-14T23:24:24.949Z,3.49
2019-01-14T23:27:15.725Z,3.50
2019-01-14T23:30:02.390Z,3.54
2019-01-14T23:32:33.507Z,3.51
2019-01-14T23:35:11.082Z,3.51
2019-01-14T23:38:12.324Z,3.51
2019-01-14T23:40:52.856Z,3.56
2019-01-14T23:43:41.943Z,3.58
2019-01-14T23:46:13.395Z,3.69
2019-01-14T23:49:02.751Z,3.60
2019-01-14T23:51:47.746Z,3.60
2019-01-14T23:54:20.197Z,3.55
2019-01-14T23:57:01.465Z,3.52
2019-01-14T23:59:44.698Z,3.45
